Terminal Aerodrome Forecast
Issued by NWS

Home | Current Version | Previous Version | Text Only | Print | Product List | Glossary Off
Versions: 1 2 3 4 5 6 7 8 9 10 11 12 13 14 15 16 17 18

000
FTUS43 KBIS 011736
TAFJMS
TAF
KJMS 011736Z 0118/0218 12005KT P6SM BKN070
     FM012100 VRB05KT P6SM SCT040 SCT070
     FM020100 12005KT P6SM VCTS SCT050CB BKN080
     FM020900 13005KT P6SM BKN060=

USA.gov is the U.S. government's official web portal to all federal, state and local government web resources and services.